Time;durP1;ratioP1;P1;durP2;ratioP2;P2;SDS_P1;SDS_P2;PMS_P1;PMS_P2;Temp;Humidity;BMP_temperature;BMP_pressure;BME280_temperature;BME280_humidity;BME280_pressure;Samples;Min_cycle;Max_cycle;Signal;HPM_P1;HPM_P2
2022/11/29 00:00:46;;;;;;;23.65;17.08;;;;;;;5.59;86.03;98565.31;5022435;28;20031;-83
2022/11/29 00:03:12;;;;;;;22.00;14.98;;;;;;;5.49;86.94;98569.50;5005852;28;20116;-83
2022/11/29 00:05:37;;;;;;;24.35;14.32;;;;;;;5.52;86.17;98564.59;5005904;28;20158;-83
2022/11/29 00:08:02;;;;;;;23.38;14.90;;;;;;;5.47;86.30;98545.13;5008559;28;20036;-83
2022/11/29 00:10:28;;;;;;;22.75;15.23;;;;;;;5.37;86.45;98550.94;5024487;28;20393;-83
2022/11/29 00:12:53;;;;;;;25.40;15.55;;;;;;;5.58;86.51;98571.66;5021905;28;20022;-83
2022/11/29 00:15:18;;;;;;;24.65;15.55;;;;;;;5.49;86.52;98561.56;5020697;28;20071;-83
2022/11/29 00:17:44;;;;;;;22.80;15.68;;;;;;;5.53;86.09;98554.81;5005197;28;20041;-83
2022/11/29 00:20:10;;;;;;;24.48;15.57;;;;;;;5.56;85.54;98539.31;5002615;28;20120;-83
2022/11/29 00:22:36;;;;;;;23.20;15.73;;;;;;;5.63;85.74;98545.31;4989635;28;20481;-83
2022/11/29 00:25:01;;;;;;;21.50;14.40;;;;;;;5.51;85.87;98538.34;5023392;28;20082;-82
2022/11/29 00:27:27;;;;;;;20.25;15.15;;;;;;;5.62;85.78;98551.63;5025380;28;20033;-83
2022/11/29 00:29:52;;;;;;;23.92;14.98;;;;;;;5.72;86.09;98559.84;5026239;28;20037;-83
2022/11/29 00:32:17;;;;;;;22.00;14.70;;;;;;;5.65;85.79;98553.84;5019210;28;20444;-83
2022/11/29 00:34:43;;;;;;;22.27;15.32;;;;;;;5.61;85.86;98551.88;5006570;28;20045;-83
2022/11/29 00:37:08;;;;;;;23.75;14.85;;;;;;;5.65;85.88;98548.56;4986102;28;20176;-84
2022/11/29 00:39:34;;;;;;;19.55;14.00;;;;;;;5.57;86.26;98556.00;5023388;28;20074;-83
2022/11/29 00:41:59;;;;;;;22.05;14.60;;;;;;;5.53;86.37;98547.69;5023405;28;20025;-83
2022/11/29 00:44:24;;;;;;;22.67;15.32;;;;;;;5.62;86.46;98550.81;5017443;28;20410;-83
2022/11/29 00:46:50;;;;;;;20.02;13.48;;;;;;;5.68;85.21;98548.09;5020992;28;20029;-83
2022/11/29 00:49:15;;;;;;;31.98;16.88;;;;;;;5.76;85.51;98563.69;5017397;28;20543;-82
2022/11/29 00:51:40;;;;;;;23.60;14.30;;;;;;;5.71;85.75;98563.53;5007111;28;20041;-83
2022/11/29 00:54:06;;;;;;;21.60;14.25;;;;;;;5.84;85.76;98562.56;5021591;28;20402;-83
2022/11/29 00:56:31;;;;;;;25.30;16.05;;;;;;;5.76;85.50;98547.78;5008215;28;20033;-83
2022/11/29 00:58:57;;;;;;;24.88;15.30;;;;;;;5.75;85.25;98543.50;5023090;28;20516;-83
2022/11/29 01:01:22;;;;;;;23.70;15.02;;;;;;;5.92;85.19;98560.41;4988738;28;20568;-83
2022/11/29 01:03:47;;;;;;;23.15;15.00;;;;;;;5.76;84.75;98549.63;5024130;28;20036;-83
2022/11/29 01:06:15;;;;;;;25.38;15.90;;;;;;;5.85;85.36;98564.19;4989946;28;20021;-83
2022/11/29 01:08:41;;;;;;;30.60;17.17;;;;;;;5.25;87.51;98555.34;5015501;28;20025;-82
2022/11/29 01:11:12;;;;;;;28.92;17.10;;;;;;;5.19;88.17;98546.47;5022948;28;20030;-82
2022/11/29 01:13:38;;;;;;;27.10;17.90;;;;;;;4.70;90.85;98564.25;5023158;28;20045;-82
2022/11/29 01:16:05;;;;;;;27.70;17.67;;;;;;;4.73;91.40;98575.22;5020935;28;20381;-82
2022/11/29 01:18:31;;;;;;;27.92;17.50;;;;;;;4.69;92.37;98581.16;5017255;28;20055;-83
2022/11/29 01:21:09;;;;;;;41.25;23.30;;;;;;;4.23;92.27;98542.75;5022115;28;20033;-82
2022/11/29 01:23:36;;;;;;;30.25;19.88;;;;;;;4.84;91.25;98581.63;5020363;28;20040;-83
2022/11/29 01:26:05;;;;;;;34.28;20.83;;;;;;;4.67;91.57;98583.22;5022804;28;20115;-83
2022/11/29 01:28:31;;;;;;;33.85;21.10;;;;;;;4.37;93.70;98562.72;5022974;28;20042;-82
2022/11/29 01:30:56;;;;;;;32.65;18.77;;;;;;;4.85;91.74;98573.47;5016552;28;20545;-83
2022/11/29 01:33:22;;;;;;;26.02;16.30;;;;;;;5.20;89.05;98582.47;5023516;28;20211;-83
2022/11/29 01:35:52;;;;;;;30.25;18.77;;;;;;;5.43;87.90;98587.09;5004622;28;20036;-83
2022/11/29 01:38:18;;;;;;;29.65;17.58;;;;;;;5.58;87.47;98578.78;5027593;28;20033;-83
2022/11/29 01:40:54;;;;;;;29.88;17.15;;;;;;;5.49;87.69;98586.22;4999426;28;20040;-83
2022/11/29 01:43:20;;;;;;;;;;;;;;;5.48;86.84;98581.16;5021589;28;20056;-83
2022/11/29 01:45:45;;;;;;;28.23;15.47;;;;;;;5.73;87.39;98589.78;5017455;28;19921;-83
2022/11/29 01:48:13;;;;;;;25.73;15.98;;;;;;;5.42;87.13;98569.59;5017388;28;20036;-83
2022/11/29 01:50:40;;;;;;;27.40;17.10;;;;;;;5.59;87.30;98589.13;5020434;28;20040;-83
2022/11/29 01:53:07;;;;;;;23.98;15.40;;;;;;;5.63;87.15;98589.50;5018223;28;20022;-83
2022/11/29 01:55:37;;;;;;;25.63;15.45;;;;;;;5.59;87.91;98597.06;5019445;28;20033;-83
2022/11/29 01:58:05;;;;;;;23.98;15.18;;;;;;;5.64;87.89;98589.28;5021675;28;20064;-83
2022/11/29 02:00:31;;;;;;;20.60;14.23;;;;;;;5.48;87.63;98576.66;5021012;28;20064;-83
2022/11/29 02:03:04;;;;;;;23.17;14.45;;;;;;;5.55;87.41;98584.53;5018237;28;20033;-83
2022/11/29 02:05:32;;;;;;;19.73;14.75;;;;;;;5.44;87.91;98580.75;5022151;28;20029;-83
2022/11/29 02:07:58;;;;;;;22.50;15.02;;;;;;;5.58;87.08;98595.47;5025710;28;20493;-83
2022/11/29 02:10:46;;;;;;;20.88;14.20;;;;;;;5.61;87.00;98586.28;5022296;28;20128;-83
2022/11/29 02:13:31;;;;;;;21.30;13.93;;;;;;;5.66;86.46;98575.81;5020406;28;20401;-82
2022/11/29 02:16:17;;;;;;;24.05;15.05;;;;;;;5.95;86.36;98599.69;5019952;28;20032;-83
2022/11/29 02:19:20;;;;;;;22.67;15.07;;;;;;;5.90;85.94;98593.44;5021163;28;20040;-83
2022/11/29 02:21:56;;;;;;;22.42;14.23;;;;;;;5.70;85.91;98563.75;5023106;28;20029;-83
2022/11/29 02:24:47;;;;;;;21.83;13.75;;;;;;;5.66;86.85;98594.34;5021099;28;20033;-84
2022/11/29 02:27:36;;;;;;;19.65;13.75;;;;;;;5.70;87.31;98584.94;5022371;28;20550;-83
2022/11/29 02:30:07;;;;;;;19.95;13.90;;;;;;;5.80;86.78;98604.56;5022828;28;20025;-83
2022/11/29 02:33:01;;;;;;;22.05;14.57;;;;;;;5.68;86.61;98590.44;5019733;28;20470;-83
2022/11/29 02:35:46;;;;;;;19.77;13.38;;;;;;;5.51;87.60;98580.69;5012863;28;20029;-82
2022/11/29 02:38:17;;;;;;;20.15;13.85;;;;;;;5.70;87.34;98595.53;5020683;28;20484;-83
2022/11/29 02:40:51;;;;;;;21.17;13.90;;;;;;;5.65;87.28;98590.09;5014784;28;20030;-83
2022/11/29 02:43:50;;;;;;;21.10;14.05;;;;;;;5.72;86.92;98588.19;5025542;28;21330;-83
2022/11/29 02:46:54;;;;;;;22.13;14.15;;;;;;;5.80;86.88;98593.16;5022349;28;20473;-83
2022/11/29 02:49:40;;;;;;;20.08;13.55;;;;;;;5.86;86.44;98593.09;5018664;28;20036;-82
2022/11/29 02:52:34;;;;;;;19.30;14.50;;;;;;;5.72;86.71;98583.66;5014796;28;20076;-83
2022/11/29 02:55:08;;;;;;;19.15;13.15;;;;;;;5.85;86.41;98599.41;4999997;28;20034;-83
2022/11/29 02:58:02;;;;;;;22.55;15.48;;;;;;;5.69;86.23;98575.38;5022315;28;20303;-83
2022/11/29 03:00:29;;;;;;;22.83;14.40;;;;;;;5.75;87.23;98588.53;5022492;28;20072;-83
2022/11/29 03:03:19;;;;;;;20.55;13.05;;;;;;;5.65;87.12;98582.97;5022418;28;20070;-83
2022/11/29 03:06:10;;;;;;;20.13;13.10;;;;;;;5.83;87.20;98595.38;5019315;28;20022;-83
2022/11/29 03:08:39;;;;;;;21.30;14.20;;;;;;;5.74;86.80;98602.00;5015427;28;20037;-83
2022/11/29 03:11:26;;;;;;;22.95;14.93;;;;;;;5.88;87.19;98603.47;5016426;28;20076;-83
2022/11/29 03:14:13;;;;;;;21.80;14.15;;;;;;;5.90;86.35;98604.84;5013585;28;20052;-83
2022/11/29 03:17:00;;;;;;;17.27;13.07;;;;;;;5.90;85.84;98610.16;5018154;28;20211;-83
2022/11/29 03:19:34;;;;;;;21.60;14.82;;;;;;;5.92;86.15;98610.72;5018003;28;20030;-83
2022/11/29 03:22:18;;;;;;;19.90;13.93;;;;;;;5.94;86.70;98619.25;5022610;28;20022;-83
2022/11/29 03:24:59;;;;;;;22.15;14.50;;;;;;;5.83;85.62;98596.16;5019011;28;20060;-83
2022/11/29 03:27:31;;;;;;;17.75;13.65;;;;;;;5.96;86.01;98619.84;5017694;28;20028;-83
2022/11/29 03:30:05;;;;;;;22.45;14.85;;;;;;;5.92;85.84;98602.78;5017341;28;20471;-83
2022/11/29 03:32:44;;;;;;;21.60;14.27;;;;;;;5.99;86.32;98622.06;5021431;28;20033;-83
2022/11/29 03:35:49;;;;;;;25.83;16.08;;;;;;;5.89;86.38;98626.28;5024221;28;20394;-83
2022/11/29 03:38:27;;;;;;;23.08;15.00;;;;;;;5.90;85.53;98606.69;5017005;28;20029;-82
2022/11/29 03:41:04;;;;;;;22.85;14.75;;;;;;;5.99;85.81;98634.47;5020546;28;20064;-83
2022/11/29 03:43:56;;;;;;;20.50;13.93;;;;;;;5.92;86.46;98631.91;5018259;28;20053;-83
2022/11/29 03:46:41;;;;;;;20.77;13.45;;;;;;;5.90;86.02;98617.28;5022070;28;20413;-83
2022/11/29 03:49:12;;;;;;;21.40;14.05;;;;;;;5.82;85.88;98621.03;5017574;28;20033;-83
2022/11/29 03:51:51;;;;;;;22.52;15.00;;;;;;;5.90;85.96;98615.44;5021326;28;20037;-83
2022/11/29 03:54:25;;;;;;;21.15;13.90;;;;;;;5.72;86.43;98620.72;5016782;28;20038;-83
2022/11/29 03:56:50;;;;;;;21.65;13.77;;;;;;;5.71;86.34;98629.72;5024097;28;20034;-83
2022/11/29 03:59:21;;;;;;;22.95;14.73;;;;;;;5.70;87.50;98636.03;4985835;28;20059;-83
2022/11/29 04:02:07;;;;;;;23.38;14.85;;;;;;;5.66;86.99;98626.94;5020936;28;20772;-83
2022/11/29 04:04:58;;;;;;;23.25;14.30;;;;;;;5.84;86.97;98637.53;5019618;28;20068;-83
2022/11/29 04:07:59;;;;;;;22.40;13.77;;;;;;;5.96;86.15;98637.59;5019951;28;20120;-83
2022/11/29 04:10:53;;;;;;;25.65;15.30;;;;;;;5.92;86.27;98637.22;5021836;28;20036;-83
2022/11/29 04:13:52;;;;;;;24.75;14.32;;;;;;;5.92;86.56;98618.69;5020007;28;20412;-83
2022/11/29 04:16:46;;;;;;;23.10;14.07;;;;;;;5.94;85.90;98637.81;5020263;28;20039;-83
2022/11/29 04:19:30;;;;;;;23.92;14.30;;;;;;;5.79;86.69;98637.34;5018412;28;20026;-83
2022/11/29 04:22:30;;;;;;;20.58;14.05;;;;;;;5.79;87.52;98642.66;5023552;28;20037;-83
2022/11/29 04:25:29;;;;;;;24.13;14.02;;;;;;;5.59;87.57;98636.00;5021797;28;20083;-84
2022/11/29 04:28:00;;;;;;;24.38;15.23;;;;;;;5.75;88.08;98646.78;5017316;28;20040;-83
2022/11/29 04:30:29;;;;;;;25.15;15.30;;;;;;;5.70;87.62;98638.69;5022103;28;20171;-83
2022/11/29 04:33:12;;;;;;;25.00;14.98;;;;;;;5.91;86.69;98645.41;5004669;28;20033;-83
2022/11/29 04:35:47;;;;;;;22.73;14.70;;;;;;;5.87;87.56;98655.66;5019573;28;20029;-83
2022/11/29 04:38:27;;;;;;;26.48;15.40;;;;;;;5.86;87.20;98650.53;5018077;28;20071;-82
2022/11/29 04:41:14;;;;;;;26.85;16.10;;;;;;;5.88;86.36;98657.25;5022814;28;20499;-83
2022/11/29 04:43:58;;;;;;;24.63;14.50;;;;;;;5.84;87.71;98657.91;5025676;28;20082;-83
2022/11/29 04:46:26;;;;;;;24.65;15.52;;;;;;;5.89;87.39;98666.00;5014470;28;20041;-83
2022/11/29 04:49:04;;;;;;;26.45;15.63;;;;;;;5.91;86.83;98664.75;5011905;28;20033;-83
2022/11/29 04:51:54;;;;;;;29.75;17.23;;;;;;;5.53;87.92;98666.78;5002428;28;20049;-83
2022/11/29 04:54:32;;;;;;;29.83;17.58;;;;;;;5.39;89.47;98673.28;5021822;28;20025;-83
2022/11/29 04:57:24;;;;;;;29.65;17.27;;;;;;;5.10;91.39;98663.38;5018940;28;20041;-83
2022/11/29 05:00:08;;;;;;;34.58;16.90;;;;;;;5.08;90.52;98657.50;5015856;28;20116;-83
2022/11/29 05:03:11;;;;;;;34.20;17.45;;;;;;;5.70;88.14;98674.97;5023060;28;20034;-83
2022/11/29 05:05:56;;;;;;;31.88;16.67;;;;;;;5.72;87.52;98668.41;5010947;28;20037;-82
2022/11/29 05:08:30;;;;;;;26.52;15.48;;;;;;;5.76;88.01;98680.19;5013750;28;20485;-83
2022/11/29 05:12:07;;;;;;;24.48;15.25;;;;;;;5.71;87.95;98682.69;5013475;28;20037;-83
2022/11/29 05:14:54;;;;;;;22.10;14.85;;;;;;;5.70;87.53;98674.97;4951211;28;20100;-82
2022/11/29 05:17:56;;;;;;;26.33;15.18;;;;;;;5.78;88.18;98685.25;4952725;28;20030;-83
2022/11/29 05:20:40;;;;;;;24.75;14.60;;;;;;;5.89;87.08;98685.34;4988765;28;20445;-83
2022/11/29 05:23:28;;;;;;;24.75;15.77;;;;;;;5.99;86.58;98687.47;5011542;28;20029;-83
2022/11/29 05:26:00;;;;;;;23.60;14.73;;;;;;;5.95;87.06;98691.59;5015762;28;20066;-83
2022/11/29 05:28:44;;;;;;;25.33;14.43;;;;;;;5.92;86.89;98694.69;5015245;28;22488;-83
2022/11/29 05:31:34;;;;;;;25.17;15.93;;;;;;;6.03;86.32;98704.53;5019181;28;20367;-83
2022/11/29 05:34:30;;;;;;;26.42;16.48;;;;;;;5.96;86.53;98704.59;5016599;28;20017;-83
2022/11/29 05:37:01;;;;;;;25.80;14.93;;;;;;;5.82;86.76;98679.28;5022299;28;20104;-83
2022/11/29 05:39:34;;;;;;;23.90;14.98;;;;;;;5.99;86.20;98696.22;5021620;28;20044;-83
2022/11/29 05:42:30;;;;;;;25.00;14.65;;;;;;;5.96;87.28;98717.06;5020812;28;20440;-83
2022/11/29 05:45:03;;;;;;;26.75;14.77;;;;;;;5.94;86.14;98703.22;5022717;28;20045;-83
2022/11/29 05:48:02;;;;;;;25.95;14.40;;;;;;;5.86;87.37;98708.81;5022806;28;20025;-84
2022/11/29 05:50:37;;;;;;;27.85;15.80;;;;;;;5.71;88.38;98708.34;5016047;28;20543;-83
2022/11/29 05:53:24;;;;;;;26.02;15.25;;;;;;;5.76;88.14;98717.25;5023837;28;20021;-83
2022/11/29 05:56:05;;;;;;;23.88;14.10;;;;;;;5.64;87.47;98699.66;5024325;28;20036;-83
2022/11/29 05:58:49;;;;;;;25.45;14.90;;;;;;;5.78;87.75;98720.50;5021131;28;20068;-83
2022/11/29 06:01:34;;;;;;;25.17;14.88;;;;;;;5.81;87.87;98719.25;5009933;28;20765;-83
2022/11/29 06:04:00;;;;;;;26.52;15.07;;;;;;;5.75;88.38;98720.09;5019844;28;20428;-83
2022/11/29 06:07:08;;;;;;;29.90;17.13;;;;;;;5.68;87.91;98725.47;5021319;28;20083;-82
2022/11/29 06:09:42;;;;;;;26.33;16.23;;;;;;;5.61;89.16;98737.19;5021976;28;20021;-83
2022/11/29 06:12:20;;;;;;;27.33;14.38;;;;;;;5.70;88.36;98727.94;5022417;28;20028;-83
2022/11/29 06:15:00;;;;;;;23.30;14.13;;;;;;;5.74;89.06;98737.84;5019110;28;20427;-83
2022/11/29 06:17:29;;;;;;;26.48;16.45;;;;;;;5.85;87.54;98741.63;5024691;28;20417;-83
2022/11/29 06:20:03;;;;;;;26.85;14.75;;;;;;;5.80;88.06;98725.56;5024107;28;20392;-83
2022/11/29 06:22:47;;;;;;;23.65;13.27;;;;;;;5.88;87.73;98742.00;5024809;28;21581;-83
2022/11/29 06:25:34;;;;;;;25.65;14.32;;;;;;;5.86;87.90;98748.53;5025279;28;20025;-82
2022/11/29 06:28:38;;;;;;;24.85;13.90;;;;;;;5.94;88.02;98751.69;5021277;28;20616;-83
2022/11/29 06:31:16;;;;;;;26.27;14.45;;;;;;;5.81;87.26;98727.19;5004982;28;20128;-83
2022/11/29 06:34:03;;;;;;;30.00;14.85;;;;;;;5.98;86.81;98758.16;5018613;28;20466;-83
2022/11/29 06:36:53;;;;;;;27.55;15.90;;;;;;;5.95;87.56;98753.34;5014718;28;20041;-83
2022/11/29 06:39:18;;;;;;;26.05;13.98;;;;;;;5.53;88.54;98714.44;5023561;28;20056;-84
2022/11/29 06:41:44;;;;;;;26.30;15.07;;;;;;;5.93;87.50;98762.53;5004352;28;20061;-83
2022/11/29 06:44:10;;;;;;;27.25;14.32;;;;;;;5.87;87.68;98761.59;5020939;28;20165;-84
2022/11/29 06:46:46;;;;;;;24.25;14.13;;;;;;;5.87;88.38;98771.34;5022949;28;20120;-84
2022/11/29 06:49:38;;;;;;;27.13;15.02;;;;;;;5.77;87.65;98761.22;5026426;28;20382;-84
2022/11/29 06:52:06;;;;;;;24.73;14.90;;;;;;;5.88;87.95;98772.97;5021831;28;20026;-84
2022/11/29 06:54:44;;;;;;;26.63;14.57;;;;;;;5.82;87.88;98779.94;5017774;28;20045;-83
2022/11/29 06:57:31;;;;;;;24.08;15.07;;;;;;;5.83;87.70;98776.22;5020244;28;20021;-83
2022/11/29 06:59:56;;;;;;;24.60;14.63;;;;;;;5.74;88.97;98788.16;5014110;28;20025;-83
2022/11/29 07:02:43;;;;;;;22.75;14.05;;;;;;;5.71;88.34;98771.88;5020826;28;20038;-83
2022/11/29 07:05:26;;;;;;;26.08;13.85;;;;;;;5.72;88.20;98773.53;5016034;28;20434;-83
2022/11/29 07:07:54;;;;;;;23.05;13.52;;;;;;;5.91;87.37;98783.13;5014995;28;20072;-83
2022/11/29 07:10:21;;;;;;;24.27;14.10;;;;;;;5.83;87.60;98773.59;5026619;28;20029;-83
2022/11/29 07:12:48;;;;;;;23.45;14.48;;;;;;;5.91;88.31;98789.25;5021337;28;20025;-83
2022/11/29 07:15:17;;;;;;;23.55;14.35;;;;;;;5.90;88.41;98787.59;5021340;28;20397;-82
2022/11/29 07:17:45;;;;;;;27.25;14.77;;;;;;;5.94;87.50;98799.38;5013422;28;20032;-84
2022/11/29 07:20:39;;;;;;;25.35;14.90;;;;;;;5.90;87.91;98803.50;5017915;28;20420;-84
2022/11/29 07:23:12;;;;;;;24.55;14.98;;;;;;;6.01;87.62;98804.59;5028668;28;20033;-84
2022/11/29 07:25:56;;;;;;;28.67;14.18;;;;;;;6.06;87.55;98802.13;5016572;28;20030;-83
2022/11/29 07:29:02;;;;;;;27.73;15.32;;;;;;;6.07;86.65;98803.75;5020346;28;20048;-83
2022/11/29 07:31:46;;;;;;;22.55;13.52;;;;;;;6.09;87.45;98803.53;5022176;28;20052;-83
2022/11/29 07:34:26;;;;;;;20.17;11.85;;;;;;;5.98;87.24;98789.97;5016287;28;20503;-83
2022/11/29 07:37:32;;;;;;;22.65;13.30;;;;;;;5.91;87.87;98783.13;5012927;28;20398;-83
2022/11/29 07:40:05;;;;;;;23.23;12.85;;;;;;;6.07;87.33;98807.19;5037762;28;20094;-83
2022/11/29 07:42:53;;;;;;;20.55;12.40;;;;;;;5.98;87.38;98784.66;5018209;28;20021;-83
2022/11/29 07:45:27;;;;;;;20.58;12.85;;;;;;;6.12;86.77;98813.66;5021734;28;20551;-83
2022/11/29 07:47:53;;;;;;;23.23;13.45;;;;;;;6.04;87.10;98805.00;5015060;28;20965;-83
2022/11/29 07:50:20;;;;;;;20.13;12.52;;;;;;;5.98;87.31;98805.06;5018120;28;20052;-83
2022/11/29 07:52:46;;;;;;;23.02;12.80;;;;;;;5.95;86.77;98798.38;5003785;28;20036;-84
2022/11/29 07:55:17;;;;;;;21.65;12.75;;;;;;;5.85;87.59;98805.19;5015879;28;20022;-83
2022/11/29 07:57:43;;;;;;;24.30;14.07;;;;;;;5.61;89.59;98820.06;5022944;28;20021;-83
2022/11/29 08:00:09;;;;;;;35.78;19.50;;;;;;;4.93;92.97;98811.22;5016718;28;20040;-82
2022/11/29 08:02:35;;;;;;;28.55;15.73;;;;;;;4.83;94.13;98817.97;5025700;28;20505;-83
2022/11/29 08:05:01;;;;;;;31.30;15.70;;;;;;;4.69;95.51;98817.25;5009957;28;20030;-83
2022/11/29 08:07:26;;;;;;;36.17;17.30;;;;;;;4.75;95.76;98826.97;5024370;28;20473;-82
2022/11/29 08:09:52;;;;;;;35.78;18.15;;;;;;;4.42;96.92;98805.97;5026650;28;20076;-83
2022/11/29 08:12:17;;;;;;;35.17;18.45;;;;;;;4.48;97.64;98838.66;5025069;28;20069;-82
2022/11/29 08:14:42;;;;;;;33.55;16.15;;;;;;;4.36;98.62;98817.41;5013253;28;20509;-83
2022/11/29 08:17:08;;;;;;;32.58;15.18;;;;;;;4.48;97.92;98815.72;5007244;28;20026;-83
2022/11/29 08:19:33;;;;;;;33.47;16.00;;;;;;;4.59;97.61;98832.72;5025709;28;20500;-83
2022/11/29 08:21:59;;;;;;;35.63;16.77;;;;;;;4.35;98.38;98821.03;5027350;28;20036;-83
2022/11/29 08:24:25;;;;;;;32.13;15.07;;;;;;;4.61;97.60;98803.47;5009251;28;20129;-83
2022/11/29 08:26:51;;;;;;;34.42;13.73;;;;;;;4.84;96.55;98819.59;4993336;28;20394;-82
2022/11/29 08:29:17;;;;;;;34.22;15.70;;;;;;;4.60;97.68;98822.97;5026193;28;20036;-82
2022/11/29 08:31:43;;;;;;;41.55;16.77;;;;;;;4.54;97.26;98806.94;5025336;28;20107;-83
2022/11/29 08:34:09;;;;;;;29.55;14.15;;;;;;;5.14;95.64;98847.06;5030615;28;20112;-83
2022/11/29 08:36:35;;;;;;;28.27;14.40;;;;;;;5.39;94.10;98847.13;5028929;28;20532;-83
2022/11/29 08:39:01;;;;;;;22.05;12.65;;;;;;;5.61;90.55;98824.53;5025033;28;20034;-83
2022/11/29 08:41:27;;;;;;;23.27;12.20;;;;;;;5.89;89.16;98838.97;5026945;28;20032;-82
2022/11/29 08:43:53;;;;;;;28.38;13.10;;;;;;;5.69;90.20;98835.66;5029742;28;20507;-83
2022/11/29 08:46:18;;;;;;;24.30;11.40;;;;;;;5.67;91.19;98850.97;5020452;28;20029;-83
2022/11/29 08:48:45;;;;;;;25.50;11.85;;;;;;;5.89;89.62;98844.28;5010793;28;20056;-83
2022/11/29 08:51:10;;;;;;;21.10;10.93;;;;;;;5.57;90.71;98824.16;4994881;28;20441;-83
2022/11/29 08:53:42;;;;;;;30.23;13.30;;;;;;;5.71;90.36;98848.69;5028943;28;20028;-84
2022/11/29 08:56:17;;;;;;;25.55;11.73;;;;;;;6.05;89.43;98864.06;5026908;28;20079;-83
2022/11/29 08:58:43;;;;;;;23.50;11.57;;;;;;;6.20;88.47;98872.50;5021625;28;20036;-83
2022/11/29 09:01:14;;;;;;;21.20;10.60;;;;;;;6.05;88.92;98874.66;5023818;28;20493;-83
2022/11/29 09:04:13;;;;;;;32.72;13.88;;;;;;;5.57;90.12;98839.25;5005613;28;20025;-83
2022/11/29 09:06:37;;;;;;;21.40;12.40;;;;;;;5.94;89.14;98881.50;5024958;28;20420;-84
2022/11/29 09:09:03;;;;;;;34.90;15.50;;;;;;;6.02;88.96;98885.72;5027700;28;20027;-83
2022/11/29 09:11:29;;;;;;;34.42;16.00;;;;;;;5.41;92.41;98880.28;5021736;28;20133;-83
2022/11/29 09:13:57;;;;;;;40.38;16.65;;;;;;;4.98;95.48;98874.84;5025921;28;20497;-83
2022/11/29 09:16:25;;;;;;;41.00;18.17;;;;;;;4.89;96.74;98885.88;5010248;28;20111;-83
2022/11/29 09:18:53;;;;;;;42.13;17.05;;;;;;;5.13;96.89;98893.09;5024519;28;20022;-83
2022/11/29 09:21:18;;;;;;;48.97;18.95;;;;;;;5.19;96.13;98892.22;5026668;28;20053;-82
2022/11/29 09:23:44;;;;;;;45.30;17.00;;;;;;;5.33;95.19;98889.28;5030131;28;20478;-82
2022/11/29 09:26:15;;;;;;;36.00;16.55;;;;;;;5.44;93.74;98882.47;5017665;28;20029;-83
2022/11/29 09:28:41;;;;;;;25.48;14.27;;;;;;;5.76;91.48;98875.31;5029562;28;20071;-83
2022/11/29 09:31:12;;;;;;;24.63;13.13;;;;;;;6.07;89.28;98898.31;5009854;28;20026;-84
2022/11/29 09:33:38;;;;;;;41.47;18.30;;;;;;;6.13;88.23;98900.91;5025189;28;20026;-83
2022/11/29 09:36:05;;;;;;;41.88;19.17;;;;;;;5.75;91.67;98897.53;5025343;28;20086;-83
2022/11/29 09:38:31;;;;;;;41.92;17.35;;;;;;;5.51;93.97;98907.06;5030790;28;20125;-84
2022/11/29 09:41:07;;;;;;;45.92;19.33;;;;;;;4.98;95.70;98890.69;5029086;28;20033;-83
2022/11/29 09:43:52;;;;;;;49.08;19.45;;;;;;;4.65;98.35;98911.22;5029772;28;20028;-82
2022/11/29 09:46:21;;;;;;;61.40;22.20;;;;;;;4.62;99.41;98911.63;5030200;28;20047;-83
2022/11/29 09:48:49;;;;;;;53.05;20.17;;;;;;;4.69;100.00;98912.41;5030852;28;20026;-83
2022/11/29 09:51:42;;;;;;;48.40;20.50;;;;;;;5.03;98.21;98922.63;5030783;28;20033;-83
2022/11/29 09:54:54;;;;;;;41.42;18.52;;;;;;;5.45;94.94;98915.88;5029808;28;20048;-83
2022/11/29 09:57:22;;;;;;;45.10;20.63;;;;;;;5.23;96.66;98888.13;5017884;28;20049;-82
2022/11/29 09:59:56;;;;;;;57.33;20.83;;;;;;;5.04;98.24;98916.34;5023392;28;20543;-83
2022/11/29 10:02:36;;;;;;;39.35;16.25;;;;;;;5.04;98.80;98897.81;5011403;28;20034;-83
2022/11/29 10:05:12;;;;;;;52.08;22.88;;;;;;;4.80;99.36;98903.00;5020820;28;20083;-83
2022/11/29 10:07:54;;;;;;;49.45;20.90;;;;;;;4.87;98.84;98914.38;5024176;28;20029;-83
2022/11/29 10:10:36;;;;;;;46.88;20.70;;;;;;;4.88;99.66;98916.81;5026289;28;20124;-83
2022/11/29 10:13:17;;;;;;;55.97;21.90;;;;;;;4.89;99.65;98914.97;5026005;28;20029;-83
2022/11/29 10:15:44;;;;;;;55.83;22.17;;;;;;;4.68;100.00;98915.25;5026703;28;20033;-83
2022/11/29 10:18:17;;;;;;;58.33;25.75;;;;;;;4.61;100.00;98903.91;5029960;28;20033;-83
2022/11/29 10:20:47;;;;;;;57.10;23.55;;;;;;;4.74;100.00;98917.88;5023406;28;20624;-82
2022/11/29 10:23:28;;;;;;;63.25;26.48;;;;;;;4.68;100.00;98913.41;5027486;28;20716;-83
2022/11/29 10:25:55;;;;;;;67.90;26.92;;;;;;;4.83;100.00;98900.75;5027454;28;20022;-83
2022/11/29 10:28:25;;;;;;;59.78;26.10;;;;;;;4.90;100.00;98901.53;5027215;28;20029;-83
2022/11/29 10:30:55;;;;;;;65.97;24.95;;;;;;;5.00;100.00;98906.38;5029142;28;20029;-83
2022/11/29 10:33:26;;;;;;;55.58;24.60;;;;;;;4.86;100.00;98883.66;5029225;28;20570;-83
2022/11/29 10:35:57;;;;;;;59.17;23.83;;;;;;;5.06;100.00;98919.56;5029705;28;20033;-82
2022/11/29 10:38:23;;;;;;;65.53;27.05;;;;;;;5.08;100.00;98919.34;5004039;28;20034;-83
2022/11/29 10:40:56;;;;;;;59.10;23.80;;;;;;;5.06;99.11;98879.91;5029961;28;20032;-83
2022/11/29 10:43:23;;;;;;;56.50;26.23;;;;;;;4.97;100.00;98902.31;5024424;28;20025;-83
2022/11/29 10:45:54;;;;;;;64.57;28.80;;;;;;;4.77;100.00;98887.56;5005179;28;20021;-83
2022/11/29 10:48:23;;;;;;;60.13;25.33;;;;;;;5.00;99.87;98919.59;5024982;28;20128;-83
2022/11/29 10:50:51;;;;;;;64.63;33.35;;;;;;;5.04;100.00;98907.59;5030218;28;20072;-83
2022/11/29 10:53:31;;;;;;;64.13;28.08;;;;;;;5.34;98.30;98898.03;5022658;28;20398;-83
2022/11/29 10:56:12;;;;;;;55.42;27.42;;;;;;;5.49;95.79;98922.38;5023037;28;20056;-83
2022/11/29 10:59:03;;;;;;;45.97;24.67;;;;;;;5.54;96.84;98916.44;5028856;28;20555;-83
2022/11/29 11:01:42;;;;;;;44.55;20.95;;;;;;;5.40;96.92;98885.78;5025457;28;20041;-83
2022/11/29 11:04:16;;;;;;;40.17;19.77;;;;;;;5.63;95.54;98913.31;5000974;28;20026;-83
2022/11/29 11:06:54;;;;;;;32.95;19.02;;;;;;;6.19;91.59;98917.75;5005453;28;20102;-83
2022/11/29 11:09:26;;;;;;;51.05;22.33;;;;;;;5.37;95.66;98888.88;5027421;28;20440;-83
2022/11/29 11:11:57;;;;;;;38.60;18.45;;;;;;;5.67;95.46;98908.41;5029538;28;20033;-83
2022/11/29 11:14:25;;;;;;;37.70;19.92;;;;;;;5.37;96.55;98920.63;5024844;28;20041;-83
2022/11/29 11:16:51;;;;;;;33.78;17.95;;;;;;;5.18;96.62;98920.50;5022462;28;20617;-83
2022/11/29 11:19:19;;;;;;;43.03;20.38;;;;;;;5.11;97.81;98919.72;5024964;28;20021;-83
2022/11/29 11:21:45;;;;;;;46.83;23.05;;;;;;;5.09;97.79;98911.19;5019315;28;20067;-83
2022/11/29 11:24:23;;;;;;;38.40;18.98;;;;;;;5.23;98.01;98914.59;5009657;28;20026;-84
2022/11/29 11:26:48;;;;;;;42.83;22.25;;;;;;;5.12;98.98;98917.91;5023085;28;20107;-83
2022/11/29 11:29:19;;;;;;;52.85;23.70;;;;;;;5.12;99.61;98918.72;5026647;28;20069;-83
2022/11/29 11:31:57;;;;;;;46.78;23.73;;;;;;;5.05;99.04;98915.28;5010141;28;20052;-83
2022/11/29 11:34:36;;;;;;;50.85;22.55;;;;;;;4.97;99.11;98902.31;5025897;28;20034;-83
2022/11/29 11:37:14;;;;;;;50.10;23.08;;;;;;;5.12;99.27;98926.66;5009958;28;20381;-84
2022/11/29 11:39:41;;;;;;;51.50;24.40;;;;;;;5.29;99.01;98925.13;5022605;28;20107;-83
2022/11/29 11:44:57;;;;;;;36.13;17.45;;;;;;;5.86;94.52;98913.56;5024871;28;20128;-83
2022/11/29 11:47:31;;;;;;;60.72;29.33;;;;;;;5.73;94.93;98923.41;5010718;28;20116;-83
2022/11/29 11:50:03;;;;;;;34.85;17.67;;;;;;;5.92;94.54;98946.31;5029206;28;20465;-83
2022/11/29 11:52:42;;;;;;;36.80;20.75;;;;;;;5.99;93.05;98908.16;5032126;28;20025;-83
2022/11/29 11:55:19;;;;;;;33.28;19.13;;;;;;;6.42;91.10;98947.09;5028486;28;20044;-84
2022/11/29 11:57:47;;;;;;;31.77;16.10;;;;;;;6.62;89.42;98943.19;5019545;28;20456;-82
2022/11/29 12:00:37;;;;;;;38.75;18.95;;;;;;;6.39;91.58;98953.66;5027483;28;20121;-84
2022/11/29 12:03:04;;;;;;;28.27;15.82;;;;;;;6.60;89.67;98952.41;5027486;28;20485;-83
2022/11/29 12:05:29;;;;;;;25.83;16.15;;;;;;;6.59;88.57;98958.75;5027305;28;20112;-84